sensor_id;sensor_type;location;lat;lon;timestamp;P1;durP1;ratioP1;P2;durP2;ratioP2
11439;SDS011;5776;51.814;4.510;2023-05-10T00:01:10;27.10;;;11.67;;
11439;SDS011;5776;51.814;4.510;2023-05-10T00:03:36;20.63;;;12.10;;
11439;SDS011;5776;51.814;4.510;2023-05-10T00:06:02;21.23;;;12.23;;
11439;SDS011;5776;51.814;4.510;2023-05-10T00:08:28;23.53;;;13.63;;
11439;SDS011;5776;51.814;4.510;2023-05-10T00:10:54;25.20;;;13.60;;
11439;SDS011;5776;51.814;4.510;2023-05-10T00:13:20;20.40;;;12.20;;
11439;SDS011;5776;51.814;4.510;2023-05-10T00:15:46;28.80;;;12.43;;
11439;SDS011;5776;51.814;4.510;2023-05-10T00:18:12;22.00;;;12.20;;
11439;SDS011;5776;51.814;4.510;2023-05-10T00:20:38;24.03;;;13.27;;
11439;SDS011;5776;51.814;4.510;2023-05-10T00:23:04;20.80;;;12.53;;
11439;SDS011;5776;51.814;4.510;2023-05-10T00:25:30;25.23;;;13.40;;
11439;SDS011;5776;51.814;4.510;2023-05-10T00:27:57;24.87;;;13.23;;
11439;SDS011;5776;51.814;4.510;2023-05-10T00:30:23;21.27;;;12.63;;
11439;SDS011;5776;51.814;4.510;2023-05-10T00:32:49;24.90;;;14.37;;
11439;SDS011;5776;51.814;4.510;2023-05-10T00:35:15;21.57;;;13.50;;
11439;SDS011;5776;51.814;4.510;2023-05-10T00:37:41;27.03;;;14.33;;
11439;SDS011;5776;51.814;4.510;2023-05-10T00:40:07;24.40;;;14.93;;
11439;SDS011;5776;51.814;4.510;2023-05-10T00:42:33;23.77;;;14.47;;
11439;SDS011;5776;51.814;4.510;2023-05-10T00:44:59;25.27;;;14.93;;
11439;SDS011;5776;51.814;4.510;2023-05-10T00:47:25;27.50;;;14.87;;
11439;SDS011;5776;51.814;4.510;2023-05-10T00:49:51;23.70;;;14.37;;
11439;SDS011;5776;51.814;4.510;2023-05-10T00:52:17;22.93;;;14.40;;
11439;SDS011;5776;51.814;4.510;2023-05-10T00:54:43;25.00;;;15.97;;
11439;SDS011;5776;51.814;4.510;2023-05-10T00:57:10;24.30;;;15.07;;
11439;SDS011;5776;51.814;4.510;2023-05-10T00:59:36;26.83;;;15.77;;
11439;SDS011;5776;51.814;4.510;2023-05-10T01:02:02;26.83;;;15.07;;
11439;SDS011;5776;51.814;4.510;2023-05-10T01:04:29;26.00;;;15.53;;
11439;SDS011;5776;51.814;4.510;2023-05-10T01:06:56;24.47;;;14.57;;
11439;SDS011;5776;51.814;4.510;2023-05-10T01:09:22;23.43;;;14.67;;
11439;SDS011;5776;51.814;4.510;2023-05-10T01:11:48;26.80;;;15.67;;
11439;SDS011;5776;51.814;4.510;2023-05-10T01:14:15;28.10;;;15.40;;
11439;SDS011;5776;51.814;4.510;2023-05-10T01:16:44;28.67;;;15.47;;
11439;SDS011;5776;51.814;4.510;2023-05-10T01:19:22;29.20;;;16.57;;
11439;SDS011;5776;51.814;4.510;2023-05-10T01:22:02;26.80;;;15.90;;
11439;SDS011;5776;51.814;4.510;2023-05-10T01:38:44;28.33;;;14.53;;
11439;SDS011;5776;51.814;4.510;2023-05-10T01:43:56;27.07;;;15.27;;
11439;SDS011;5776;51.814;4.510;2023-05-10T01:46:36;29.17;;;15.17;;
11439;SDS011;5776;51.814;4.510;2023-05-10T01:49:07;26.13;;;13.80;;
11439;SDS011;5776;51.814;4.510;2023-05-10T01:51:38;26.40;;;13.70;;
11439;SDS011;5776;51.814;4.510;2023-05-10T01:54:10;25.97;;;12.60;;
11439;SDS011;5776;51.814;4.510;2023-05-10T01:56:38;28.47;;;13.33;;
11439;SDS011;5776;51.814;4.510;2023-05-10T01:59:08;24.07;;;12.63;;
11439;SDS011;5776;51.814;4.510;2023-05-10T02:01:39;30.80;;;13.07;;
11439;SDS011;5776;51.814;4.510;2023-05-10T02:04:07;25.13;;;12.80;;
11439;SDS011;5776;51.814;4.510;2023-05-10T02:06:35;29.20;;;13.10;;
11439;SDS011;5776;51.814;4.510;2023-05-10T02:09:02;26.03;;;12.77;;
11439;SDS011;5776;51.814;4.510;2023-05-10T02:11:28;32.20;;;12.87;;
11439;SDS011;5776;51.814;4.510;2023-05-10T02:13:56;27.43;;;13.07;;
11439;SDS011;5776;51.814;4.510;2023-05-10T02:16:25;28.57;;;12.17;;
11439;SDS011;5776;51.814;4.510;2023-05-10T02:18:53;27.13;;;12.83;;
11439;SDS011;5776;51.814;4.510;2023-05-10T02:21:20;34.07;;;13.27;;
11439;SDS011;5776;51.814;4.510;2023-05-10T02:23:48;26.87;;;12.47;;
11439;SDS011;5776;51.814;4.510;2023-05-10T02:26:17;29.73;;;13.63;;
11439;SDS011;5776;51.814;4.510;2023-05-10T02:28:45;27.50;;;12.20;;
11439;SDS011;5776;51.814;4.510;2023-05-10T02:31:12;27.50;;;12.50;;
11439;SDS011;5776;51.814;4.510;2023-05-10T02:33:40;32.03;;;13.43;;
11439;SDS011;5776;51.814;4.510;2023-05-10T02:36:07;27.40;;;13.17;;
11439;SDS011;5776;51.814;4.510;2023-05-10T02:38:35;33.07;;;14.07;;
11439;SDS011;5776;51.814;4.510;2023-05-10T02:41:02;31.97;;;13.03;;
11439;SDS011;5776;51.814;4.510;2023-05-10T02:43:31;27.20;;;13.57;;
11439;SDS011;5776;51.814;4.510;2023-05-10T02:45:59;24.77;;;13.23;;
11439;SDS011;5776;51.814;4.510;2023-05-10T02:48:25;30.60;;;12.93;;
11439;SDS011;5776;51.814;4.510;2023-05-10T02:50:52;28.00;;;13.47;;
11439;SDS011;5776;51.814;4.510;2023-05-10T02:53:28;27.30;;;13.20;;
11439;SDS011;5776;51.814;4.510;2023-05-10T02:55:58;31.30;;;13.63;;
11439;SDS011;5776;51.814;4.510;2023-05-10T02:58:26;26.90;;;13.00;;
11439;SDS011;5776;51.814;4.510;2023-05-10T03:00:52;27.10;;;12.93;;
11439;SDS011;5776;51.814;4.510;2023-05-10T03:03:19;27.13;;;13.20;;
11439;SDS011;5776;51.814;4.510;2023-05-10T03:05:45;28.53;;;14.83;;
11439;SDS011;5776;51.814;4.510;2023-05-10T03:08:11;28.10;;;14.13;;
11439;SDS011;5776;51.814;4.510;2023-05-10T03:11:24;29.33;;;13.37;;
11439;SDS011;5776;51.814;4.510;2023-05-10T03:13:46;25.03;;;13.37;;
11439;SDS011;5776;51.814;4.510;2023-05-10T03:16:24;29.40;;;14.00;;
11439;SDS011;5776;51.814;4.510;2023-05-10T03:18:56;32.27;;;14.43;;
11439;SDS011;5776;51.814;4.510;2023-05-10T03:21:32;29.87;;;13.77;;
11439;SDS011;5776;51.814;4.510;2023-05-10T03:24:03;27.83;;;13.87;;
11439;SDS011;5776;51.814;4.510;2023-05-10T03:26:32;26.57;;;14.73;;
11439;SDS011;5776;51.814;4.510;2023-05-10T03:28:59;29.77;;;14.77;;
11439;SDS011;5776;51.814;4.510;2023-05-10T03:31:26;30.47;;;15.40;;
11439;SDS011;5776;51.814;4.510;2023-05-10T03:33:53;35.80;;;15.90;;
11439;SDS011;5776;51.814;4.510;2023-05-10T03:36:19;31.77;;;19.33;;
11439;SDS011;5776;51.814;4.510;2023-05-10T03:38:45;37.93;;;21.20;;
11439;SDS011;5776;51.814;4.510;2023-05-10T03:41:11;33.77;;;20.17;;
11439;SDS011;5776;51.814;4.510;2023-05-10T03:43:37;27.63;;;17.77;;
11439;SDS011;5776;51.814;4.510;2023-05-10T03:46:03;31.30;;;18.23;;
11439;SDS011;5776;51.814;4.510;2023-05-10T03:48:30;32.03;;;18.57;;
11439;SDS011;5776;51.814;4.510;2023-05-10T03:50:57;28.93;;;18.20;;
11439;SDS011;5776;51.814;4.510;2023-05-10T03:53:23;26.87;;;16.27;;
11439;SDS011;5776;51.814;4.510;2023-05-10T03:55:49;21.77;;;15.23;;
11439;SDS011;5776;51.814;4.510;2023-05-10T03:58:15;25.03;;;15.33;;
11439;SDS011;5776;51.814;4.510;2023-05-10T04:00:41;23.70;;;16.40;;
11439;SDS011;5776;51.814;4.510;2023-05-10T04:03:11;24.87;;;16.60;;
11439;SDS011;5776;51.814;4.510;2023-05-10T04:05:38;26.20;;;18.30;;
11439;SDS011;5776;51.814;4.510;2023-05-10T04:08:04;29.33;;;17.37;;
11439;SDS011;5776;51.814;4.510;2023-05-10T04:10:30;32.67;;;18.53;;
11439;SDS011;5776;51.814;4.510;2023-05-10T04:12:57;26.17;;;17.23;;
11439;SDS011;5776;51.814;4.510;2023-05-10T04:15:23;26.57;;;17.07;;
11439;SDS011;5776;51.814;4.510;2023-05-10T04:17:49;27.80;;;17.90;;
11439;SDS011;5776;51.814;4.510;2023-05-10T04:20:15;33.23;;;19.77;;
11439;SDS011;5776;51.814;4.510;2023-05-10T04:22:42;33.97;;;20.77;;
11439;SDS011;5776;51.814;4.510;2023-05-10T04:25:08;34.60;;;21.17;;
11439;SDS011;5776;51.814;4.510;2023-05-10T04:27:34;41.53;;;22.50;;
11439;SDS011;5776;51.814;4.510;2023-05-10T04:30:01;41.67;;;21.87;;
11439;SDS011;5776;51.814;4.510;2023-05-10T04:32:28;38.67;;;21.97;;
11439;SDS011;5776;51.814;4.510;2023-05-10T04:34:54;34.67;;;20.53;;
11439;SDS011;5776;51.814;4.510;2023-05-10T04:37:20;32.10;;;20.30;;
11439;SDS011;5776;51.814;4.510;2023-05-10T04:39:48;34.63;;;20.43;;
11439;SDS011;5776;51.814;4.510;2023-05-10T04:42:14;39.60;;;20.60;;
11439;SDS011;5776;51.814;4.510;2023-05-10T04:44:40;29.57;;;17.10;;
11439;SDS011;5776;51.814;4.510;2023-05-10T04:47:06;32.23;;;15.87;;
11439;SDS011;5776;51.814;4.510;2023-05-10T04:49:32;27.43;;;16.37;;
11439;SDS011;5776;51.814;4.510;2023-05-10T04:51:58;23.93;;;13.43;;
11439;SDS011;5776;51.814;4.510;2023-05-10T04:54:24;25.87;;;14.27;;
11439;SDS011;5776;51.814;4.510;2023-05-10T04:56:51;25.20;;;13.60;;
11439;SDS011;5776;51.814;4.510;2023-05-10T04:59:17;20.90;;;12.57;;
11439;SDS011;5776;51.814;4.510;2023-05-10T05:01:42;23.40;;;12.63;;
11439;SDS011;5776;51.814;4.510;2023-05-10T05:04:08;23.87;;;13.07;;
11439;SDS011;5776;51.814;4.510;2023-05-10T05:06:34;18.67;;;11.83;;
11439;SDS011;5776;51.814;4.510;2023-05-10T05:09:00;23.80;;;14.07;;
11439;SDS011;5776;51.814;4.510;2023-05-10T05:11:26;24.90;;;13.43;;
11439;SDS011;5776;51.814;4.510;2023-05-10T05:13:52;23.63;;;12.23;;
11439;SDS011;5776;51.814;4.510;2023-05-10T05:16:19;18.90;;;12.23;;
11439;SDS011;5776;51.814;4.510;2023-05-10T05:18:45;20.60;;;11.13;;
11439;SDS011;5776;51.814;4.510;2023-05-10T05:21:17;22.23;;;11.67;;
11439;SDS011;5776;51.814;4.510;2023-05-10T05:23:45;22.57;;;11.60;;
11439;SDS011;5776;51.814;4.510;2023-05-10T05:26:11;21.57;;;12.53;;
11439;SDS011;5776;51.814;4.510;2023-05-10T05:28:37;21.80;;;12.63;;
11439;SDS011;5776;51.814;4.510;2023-05-10T05:31:04;20.40;;;13.07;;
11439;SDS011;5776;51.814;4.510;2023-05-10T05:33:30;19.00;;;11.30;;
11439;SDS011;5776;51.814;4.510;2023-05-10T05:35:56;22.27;;;12.47;;
11439;SDS011;5776;51.814;4.510;2023-05-10T05:38:22;20.47;;;11.83;;
11439;SDS011;5776;51.814;4.510;2023-05-10T05:40:49;20.17;;;12.93;;
11439;SDS011;5776;51.814;4.510;2023-05-10T05:43:15;21.00;;;11.30;;
11439;SDS011;5776;51.814;4.510;2023-05-10T05:45:41;20.07;;;11.27;;
11439;SDS011;5776;51.814;4.510;2023-05-10T05:48:06;22.70;;;11.23;;
11439;SDS011;5776;51.814;4.510;2023-05-10T05:50:32;19.23;;;11.27;;
11439;SDS011;5776;51.814;4.510;2023-05-10T05:52:58;19.27;;;11.23;;
11439;SDS011;5776;51.814;4.510;2023-05-10T05:55:24;22.03;;;11.50;;
11439;SDS011;5776;51.814;4.510;2023-05-10T05:57:51;20.07;;;10.70;;
11439;SDS011;5776;51.814;4.510;2023-05-10T06:00:17;20.80;;;10.37;;
11439;SDS011;5776;51.814;4.510;2023-05-10T06:02:43;18.10;;;9.60;;
11439;SDS011;5776;51.814;4.510;2023-05-10T06:05:09;18.07;;;9.60;;
11439;SDS011;5776;51.814;4.510;2023-05-10T06:07:35;21.40;;;10.50;;
11439;SDS011;5776;51.814;4.510;2023-05-10T06:10:01;18.47;;;9.53;;
11439;SDS011;5776;51.814;4.510;2023-05-10T06:12:28;18.30;;;9.40;;
11439;SDS011;5776;51.814;4.510;2023-05-10T06:14:53;16.67;;;9.53;;
11439;SDS011;5776;51.814;4.510;2023-05-10T06:17:19;12.40;;;8.20;;
11439;SDS011;5776;51.814;4.510;2023-05-10T06:19:45;14.67;;;8.80;;
11439;SDS011;5776;51.814;4.510;2023-05-10T06:22:11;11.87;;;7.73;;
11439;SDS011;5776;51.814;4.510;2023-05-10T06:24:37;12.07;;;7.13;;
11439;SDS011;5776;51.814;4.510;2023-05-10T06:27:03;14.27;;;7.20;;
11439;SDS011;5776;51.814;4.510;2023-05-10T06:29:29;16.63;;;7.40;;
11439;SDS011;5776;51.814;4.510;2023-05-10T06:31:55;14.17;;;7.40;;
11439;SDS011;5776;51.814;4.510;2023-05-10T06:34:21;10.33;;;7.10;;
11439;SDS011;5776;51.814;4.510;2023-05-10T06:36:47;11.20;;;6.67;;
11439;SDS011;5776;51.814;4.510;2023-05-10T06:39:13;14.93;;;7.20;;
11439;SDS011;5776;51.814;4.510;2023-05-10T06:41:39;11.83;;;6.50;;
11439;SDS011;5776;51.814;4.510;2023-05-10T06:44:05;15.48;;;6.85;;
11439;SDS011;5776;51.814;4.510;2023-05-10T06:46:31;14.27;;;7.40;;
11439;SDS011;5776;51.814;4.510;2023-05-10T06:48:57;14.60;;;6.60;;
11439;SDS011;5776;51.814;4.510;2023-05-10T06:51:23;10.03;;;6.33;;
11439;SDS011;5776;51.814;4.510;2023-05-10T06:53:49;12.50;;;5.27;;
11439;SDS011;5776;51.814;4.510;2023-05-10T06:56:15;10.93;;;5.10;;
11439;SDS011;5776;51.814;4.510;2023-05-10T06:58:41;9.60;;;6.07;;
11439;SDS011;5776;51.814;4.510;2023-05-10T07:01:07;9.93;;;5.27;;
11439;SDS011;5776;51.814;4.510;2023-05-10T07:03:33;8.80;;;5.67;;
11439;SDS011;5776;51.814;4.510;2023-05-10T07:06:02;12.97;;;5.97;;
11439;SDS011;5776;51.814;4.510;2023-05-10T07:08:30;10.00;;;5.27;;
11439;SDS011;5776;51.814;4.510;2023-05-10T07:11:03;13.03;;;5.83;;
11439;SDS011;5776;51.814;4.510;2023-05-10T07:13:30;7.47;;;4.77;;
11439;SDS011;5776;51.814;4.510;2023-05-10T07:15:57;11.93;;;5.03;;
11439;SDS011;5776;51.814;4.510;2023-05-10T07:18:24;9.30;;;5.90;;
11439;SDS011;5776;51.814;4.510;2023-05-10T07:20:51;11.83;;;6.00;;
11439;SDS011;5776;51.814;4.510;2023-05-10T07:23:17;12.13;;;6.00;;
11439;SDS011;5776;51.814;4.510;2023-05-10T07:25:49;10.37;;;5.40;;
11439;SDS011;5776;51.814;4.510;2023-05-10T07:28:17;10.03;;;5.43;;
11439;SDS011;5776;51.814;4.510;2023-05-10T07:30:44;8.83;;;5.60;;
11439;SDS011;5776;51.814;4.510;2023-05-10T07:33:10;9.00;;;5.67;;
11439;SDS011;5776;51.814;4.510;2023-05-10T07:35:38;10.90;;;6.20;;
11439;SDS011;5776;51.814;4.510;2023-05-10T07:38:04;9.03;;;4.93;;
11439;SDS011;5776;51.814;4.510;2023-05-10T07:40:30;8.80;;;4.93;;
11439;SDS011;5776;51.814;4.510;2023-05-10T07:42:57;7.47;;;4.83;;
11439;SDS011;5776;51.814;4.510;2023-05-10T07:45:23;7.93;;;3.53;;
11439;SDS011;5776;51.814;4.510;2023-05-10T07:47:49;8.07;;;4.87;;
11439;SDS011;5776;51.814;4.510;2023-05-10T07:50:15;6.03;;;3.53;;
11439;SDS011;5776;51.814;4.510;2023-05-10T07:52:41;7.20;;;4.93;;
11439;SDS011;5776;51.814;4.510;2023-05-10T07:55:07;6.13;;;4.17;;
11439;SDS011;5776;51.814;4.510;2023-05-10T07:57:34;7.37;;;4.57;;
11439;SDS011;5776;51.814;4.510;2023-05-10T08:00:00;6.70;;;4.57;;
11439;SDS011;5776;51.814;4.510;2023-05-10T08:02:26;7.10;;;4.50;;
11439;SDS011;5776;51.814;4.510;2023-05-10T08:04:52;5.27;;;4.10;;
11439;SDS011;5776;51.814;4.510;2023-05-10T08:07:18;5.93;;;4.40;;
11439;SDS011;5776;51.814;4.510;2023-05-10T08:09:44;5.20;;;3.90;;
11439;SDS011;5776;51.814;4.510;2023-05-10T08:12:10;5.00;;;3.40;;
11439;SDS011;5776;51.814;4.510;2023-05-10T08:14:35;3.87;;;2.63;;
11439;SDS011;5776;51.814;4.510;2023-05-10T08:17:02;3.93;;;3.10;;
11439;SDS011;5776;51.814;4.510;2023-05-10T08:19:29;5.03;;;3.23;;
11439;SDS011;5776;51.814;4.510;2023-05-10T08:21:55;4.27;;;2.87;;
11439;SDS011;5776;51.814;4.510;2023-05-10T08:24:21;5.70;;;2.90;;
11439;SDS011;5776;51.814;4.510;2023-05-10T08:26:48;7.40;;;3.00;;
11439;SDS011;5776;51.814;4.510;2023-05-10T08:29:14;4.13;;;2.77;;
11439;SDS011;5776;51.814;4.510;2023-05-10T08:31:41;4.07;;;2.80;;
11439;SDS011;5776;51.814;4.510;2023-05-10T08:34:07;5.07;;;3.40;;
11439;SDS011;5776;51.814;4.510;2023-05-10T08:36:33;4.60;;;3.40;;
11439;SDS011;5776;51.814;4.510;2023-05-10T08:38:59;5.20;;;3.23;;
11439;SDS011;5776;51.814;4.510;2023-05-10T08:41:25;5.43;;;2.93;;
11439;SDS011;5776;51.814;4.510;2023-05-10T08:43:53;8.63;;;3.70;;
11439;SDS011;5776;51.814;4.510;2023-05-10T08:46:20;4.07;;;2.80;;
11439;SDS011;5776;51.814;4.510;2023-05-10T08:48:48;5.23;;;3.50;;
11439;SDS011;5776;51.814;4.510;2023-05-10T08:51:17;4.43;;;3.23;;
11439;SDS011;5776;51.814;4.510;2023-05-10T08:53:45;5.47;;;3.27;;
11439;SDS011;5776;51.814;4.510;2023-05-10T08:56:11;5.60;;;2.77;;
11439;SDS011;5776;51.814;4.510;2023-05-10T08:58:37;5.40;;;3.27;;
11439;SDS011;5776;51.814;4.510;2023-05-10T09:01:05;7.73;;;3.80;;
11439;SDS011;5776;51.814;4.510;2023-05-10T09:03:31;5.27;;;2.90;;
11439;SDS011;5776;51.814;4.510;2023-05-10T09:05:58;5.50;;;3.03;;
11439;SDS011;5776;51.814;4.510;2023-05-10T09:08:24;4.00;;;2.90;;
11439;SDS011;5776;51.814;4.510;2023-05-10T09:10:51;2.60;;;2.23;;
11439;SDS011;5776;51.814;4.510;2023-05-10T09:13:18;5.00;;;3.60;;
11439;SDS011;5776;51.814;4.510;2023-05-10T09:15:45;5.47;;;3.33;;
11439;SDS011;5776;51.814;4.510;2023-05-10T09:18:11;5.53;;;4.00;;
11439;SDS011;5776;51.814;4.510;2023-05-10T09:20:37;4.13;;;3.23;;
11439;SDS011;5776;51.814;4.510;2023-05-10T09:23:03;4.93;;;2.97;;
11439;SDS011;5776;51.814;4.510;2023-05-10T09:25:29;5.37;;;3.37;;
11439;SDS011;5776;51.814;4.510;2023-05-10T09:27:55;5.47;;;3.63;;
11439;SDS011;5776;51.814;4.510;2023-05-10T09:32:52;6.40;;;3.77;;
11439;SDS011;5776;51.814;4.510;2023-05-10T09:35:19;5.63;;;3.63;;
11439;SDS011;5776;51.814;4.510;2023-05-10T09:37:48;6.17;;;3.27;;
11439;SDS011;5776;51.814;4.510;2023-05-10T09:40:16;6.27;;;3.63;;
11439;SDS011;5776;51.814;4.510;2023-05-10T09:42:50;5.83;;;3.33;;
11439;SDS011;5776;51.814;4.510;2023-05-10T09:45:25;4.70;;;3.30;;
11439;SDS011;5776;51.814;4.510;2023-05-10T09:47:53;5.03;;;2.87;;
11439;SDS011;5776;51.814;4.510;2023-05-10T09:50:20;6.33;;;3.33;;
11439;SDS011;5776;51.814;4.510;2023-05-10T09:58:01;4.00;;;2.70;;
11439;SDS011;5776;51.814;4.510;2023-05-10T10:00:27;5.17;;;2.70;;
11439;SDS011;5776;51.814;4.510;2023-05-10T10:02:57;7.80;;;3.23;;
11439;SDS011;5776;51.814;4.510;2023-05-10T10:05:30;8.17;;;2.63;;
11439;SDS011;5776;51.814;4.510;2023-05-10T10:08:02;6.27;;;2.57;;
11439;SDS011;5776;51.814;4.510;2023-05-10T10:10:30;9.10;;;3.00;;
11439;SDS011;5776;51.814;4.510;2023-05-10T10:12:59;8.17;;;3.17;;
11439;SDS011;5776;51.814;4.510;2023-05-10T10:15:27;3.87;;;2.63;;
11439;SDS011;5776;51.814;4.510;2023-05-10T10:17:54;5.73;;;2.50;;
11439;SDS011;5776;51.814;4.510;2023-05-10T10:20:20;6.13;;;2.47;;
11439;SDS011;5776;51.814;4.510;2023-05-10T10:22:48;4.13;;;2.80;;
11439;SDS011;5776;51.814;4.510;2023-05-10T10:25:17;3.87;;;2.83;;
11439;SDS011;5776;51.814;4.510;2023-05-10T10:28:20;8.40;;;4.27;;
11439;SDS011;5776;51.814;4.510;2023-05-10T10:31:01;5.70;;;4.10;;
11439;SDS011;5776;51.814;4.510;2023-05-10T10:36:10;5.63;;;4.60;;
11439;SDS011;5776;51.814;4.510;2023-05-10T10:41:32;7.37;;;4.37;;
11439;SDS011;5776;51.814;4.510;2023-05-10T10:47:11;4.53;;;3.83;;
11439;SDS011;5776;51.814;4.510;2023-05-10T10:49:48;7.13;;;3.90;;
11439;SDS011;5776;51.814;4.510;2023-05-10T10:54:52;5.77;;;3.40;;
11439;SDS011;5776;51.814;4.510;2023-05-10T10:57:46;5.03;;;3.30;;
11439;SDS011;5776;51.814;4.510;2023-05-10T11:02:49;6.00;;;3.37;;
11439;SDS011;5776;51.814;4.510;2023-05-10T11:08:13;7.73;;;3.27;;
11439;SDS011;5776;51.814;4.510;2023-05-10T11:13:29;6.50;;;4.00;;
11439;SDS011;5776;51.814;4.510;2023-05-10T11:18:37;5.10;;;3.87;;
11439;SDS011;5776;51.814;4.510;2023-05-10T11:21:03;6.57;;;3.53;;
11439;SDS011;5776;51.814;4.510;2023-05-10T11:23:31;6.97;;;4.13;;
11439;SDS011;5776;51.814;4.510;2023-05-10T11:26:13;6.70;;;3.67;;
11439;SDS011;5776;51.814;4.510;2023-05-10T11:28:43;6.00;;;3.63;;
11439;SDS011;5776;51.814;4.510;2023-05-10T11:31:13;8.53;;;3.93;;
11439;SDS011;5776;51.814;4.510;2023-05-10T11:33:46;8.10;;;3.50;;
11439;SDS011;5776;51.814;4.510;2023-05-10T11:36:14;8.53;;;3.63;;
11439;SDS011;5776;51.814;4.510;2023-05-10T11:38:45;7.37;;;3.57;;
11439;SDS011;5776;51.814;4.510;2023-05-10T11:41:12;4.50;;;3.40;;
11439;SDS011;5776;51.814;4.510;2023-05-10T11:43:39;8.77;;;2.90;;
11439;SDS011;5776;51.814;4.510;2023-05-10T11:46:06;6.37;;;3.40;;
11439;SDS011;5776;51.814;4.510;2023-05-10T11:48:33;6.70;;;3.20;;
11439;SDS011;5776;51.814;4.510;2023-05-10T11:51:00;5.10;;;2.50;;
11439;SDS011;5776;51.814;4.510;2023-05-10T11:53:28;5.87;;;2.47;;
11439;SDS011;5776;51.814;4.510;2023-05-10T11:55:55;2.83;;;1.90;;
11439;SDS011;5776;51.814;4.510;2023-05-10T11:58:21;5.17;;;2.13;;
11439;SDS011;5776;51.814;4.510;2023-05-10T12:00:48;4.97;;;2.70;;
11439;SDS011;5776;51.814;4.510;2023-05-10T12:03:15;6.70;;;2.87;;
11439;SDS011;5776;51.814;4.510;2023-05-10T12:05:42;5.07;;;2.70;;
11439;SDS011;5776;51.814;4.510;2023-05-10T12:08:14;5.50;;;2.53;;
11439;SDS011;5776;51.814;4.510;2023-05-10T12:10:41;7.57;;;2.23;;
11439;SDS011;5776;51.814;4.510;2023-05-10T12:13:11;3.63;;;2.43;;
11439;SDS011;5776;51.814;4.510;2023-05-10T12:15:38;6.13;;;3.07;;
11439;SDS011;5776;51.814;4.510;2023-05-10T12:18:05;6.13;;;2.67;;
11439;SDS011;5776;51.814;4.510;2023-05-10T12:20:31;3.30;;;2.40;;
11439;SDS011;5776;51.814;4.510;2023-05-10T12:22:57;5.53;;;2.80;;
11439;SDS011;5776;51.814;4.510;2023-05-10T12:25:24;4.63;;;2.90;;
11439;SDS011;5776;51.814;4.510;2023-05-10T12:27:57;4.37;;;2.83;;
11439;SDS011;5776;51.814;4.510;2023-05-10T12:30:27;6.90;;;3.50;;
11439;SDS011;5776;51.814;4.510;2023-05-10T12:32:59;5.10;;;3.03;;
11439;SDS011;5776;51.814;4.510;2023-05-10T12:35:30;5.93;;;2.80;;
11439;SDS011;5776;51.814;4.510;2023-05-10T12:37:56;6.50;;;2.90;;
11439;SDS011;5776;51.814;4.510;2023-05-10T12:40:22;4.03;;;2.23;;
11439;SDS011;5776;51.814;4.510;2023-05-10T12:42:49;4.13;;;2.13;;
11439;SDS011;5776;51.814;4.510;2023-05-10T12:45:15;3.87;;;1.97;;
11439;SDS011;5776;51.814;4.510;2023-05-10T12:47:43;4.03;;;1.83;;
11439;SDS011;5776;51.814;4.510;2023-05-10T12:50:09;5.30;;;3.17;;
11439;SDS011;5776;51.814;4.510;2023-05-10T12:52:35;4.80;;;2.20;;
11439;SDS011;5776;51.814;4.510;2023-05-10T12:55:01;7.63;;;1.90;;
11439;SDS011;5776;51.814;4.510;2023-05-10T12:57:28;5.83;;;1.90;;
11439;SDS011;5776;51.814;4.510;2023-05-10T12:59:54;3.93;;;1.70;;
11439;SDS011;5776;51.814;4.510;2023-05-10T13:02:21;5.33;;;2.73;;
11439;SDS011;5776;51.814;4.510;2023-05-10T13:04:48;5.77;;;2.53;;
11439;SDS011;5776;51.814;4.510;2023-05-10T13:07:15;5.63;;;2.83;;
11439;SDS011;5776;51.814;4.510;2023-05-10T13:09:41;4.73;;;2.50;;
11439;SDS011;5776;51.814;4.510;2023-05-10T13:12:07;6.53;;;2.50;;
11439;SDS011;5776;51.814;4.510;2023-05-10T13:14:33;4.80;;;2.80;;
11439;SDS011;5776;51.814;4.510;2023-05-10T13:16:59;5.57;;;2.13;;
11439;SDS011;5776;51.814;4.510;2023-05-10T13:19:25;4.93;;;2.60;;
11439;SDS011;5776;51.814;4.510;2023-05-10T13:21:51;6.13;;;2.40;;
11439;SDS011;5776;51.814;4.510;2023-05-10T13:24:17;3.03;;;1.70;;
11439;SDS011;5776;51.814;4.510;2023-05-10T13:26:43;4.23;;;2.00;;
11439;SDS011;5776;51.814;4.510;2023-05-10T13:29:09;3.33;;;1.90;;
11439;SDS011;5776;51.814;4.510;2023-05-10T13:31:35;5.13;;;2.67;;
11439;SDS011;5776;51.814;4.510;2023-05-10T13:34:01;11.77;;;3.63;;
11439;SDS011;5776;51.814;4.510;2023-05-10T13:36:28;3.63;;;2.00;;
11439;SDS011;5776;51.814;4.510;2023-05-10T13:38:54;13.23;;;3.60;;
11439;SDS011;5776;51.814;4.510;2023-05-10T13:41:20;27.43;;;5.90;;
11439;SDS011;5776;51.814;4.510;2023-05-10T13:43:46;4.40;;;2.20;;
11439;SDS011;5776;51.814;4.510;2023-05-10T13:46:14;5.17;;;1.63;;
11439;SDS011;5776;51.814;4.510;2023-05-10T13:48:40;1.90;;;1.37;;
11439;SDS011;5776;51.814;4.510;2023-05-10T13:51:06;4.27;;;1.73;;
11439;SDS011;5776;51.814;4.510;2023-05-10T13:53:32;5.67;;;1.87;;
11439;SDS011;5776;51.814;4.510;2023-05-10T13:55:58;2.23;;;1.57;;
11439;SDS011;5776;51.814;4.510;2023-05-10T13:58:24;4.30;;;1.80;;
11439;SDS011;5776;51.814;4.510;2023-05-10T14:00:50;3.67;;;1.53;;
11439;SDS011;5776;51.814;4.510;2023-05-10T14:03:16;4.00;;;1.60;;
11439;SDS011;5776;51.814;4.510;2023-05-10T14:05:44;3.53;;;1.70;;
11439;SDS011;5776;51.814;4.510;2023-05-10T14:08:11;3.33;;;1.90;;
11439;SDS011;5776;51.814;4.510;2023-05-10T14:10:38;2.73;;;2.10;;
11439;SDS011;5776;51.814;4.510;2023-05-10T14:13:05;7.00;;;2.63;;
11439;SDS011;5776;51.814;4.510;2023-05-10T14:15:31;5.03;;;2.13;;
11439;SDS011;5776;51.814;4.510;2023-05-10T14:17:57;6.13;;;2.10;;
11439;SDS011;5776;51.814;4.510;2023-05-10T14:20:23;6.60;;;2.37;;
11439;SDS011;5776;51.814;4.510;2023-05-10T14:22:49;4.27;;;2.07;;
11439;SDS011;5776;51.814;4.510;2023-05-10T14:25:15;4.00;;;2.27;;
11439;SDS011;5776;51.814;4.510;2023-05-10T14:27:41;6.93;;;1.70;;
11439;SDS011;5776;51.814;4.510;2023-05-10T14:30:07;4.97;;;2.00;;
11439;SDS011;5776;51.814;4.510;2023-05-10T14:32:33;2.93;;;1.53;;
11439;SDS011;5776;51.814;4.510;2023-05-10T14:34:59;4.77;;;1.50;;
11439;SDS011;5776;51.814;4.510;2023-05-10T14:37:25;5.27;;;2.23;;
11439;SDS011;5776;51.814;4.510;2023-05-10T14:39:51;4.43;;;1.97;;
11439;SDS011;5776;51.814;4.510;2023-05-10T14:42:18;3.53;;;2.13;;
11439;SDS011;5776;51.814;4.510;2023-05-10T14:44:44;8.60;;;2.20;;
11439;SDS011;5776;51.814;4.510;2023-05-10T14:47:10;3.70;;;2.10;;
11439;SDS011;5776;51.814;4.510;2023-05-10T14:49:36;4.20;;;2.30;;
11439;SDS011;5776;51.814;4.510;2023-05-10T14:52:02;3.90;;;2.57;;
11439;SDS011;5776;51.814;4.510;2023-05-10T14:54:28;6.80;;;3.33;;
11439;SDS011;5776;51.814;4.510;2023-05-10T14:56:54;8.83;;;3.60;;
11439;SDS011;5776;51.814;4.510;2023-05-10T14:59:20;6.37;;;3.20;;
11439;SDS011;5776;51.814;4.510;2023-05-10T15:01:46;7.13;;;3.23;;
11439;SDS011;5776;51.814;4.510;2023-05-10T15:04:12;5.57;;;3.73;;
11439;SDS011;5776;51.814;4.510;2023-05-10T15:06:39;7.23;;;4.07;;
11439;SDS011;5776;51.814;4.510;2023-05-10T15:09:04;6.57;;;3.53;;
11439;SDS011;5776;51.814;4.510;2023-05-10T15:11:31;7.57;;;4.03;;
11439;SDS011;5776;51.814;4.510;2023-05-10T15:13:57;6.60;;;3.87;;
11439;SDS011;5776;51.814;4.510;2023-05-10T15:16:23;7.30;;;4.07;;
11439;SDS011;5776;51.814;4.510;2023-05-10T15:18:49;9.13;;;4.40;;
11439;SDS011;5776;51.814;4.510;2023-05-10T15:21:15;7.87;;;4.03;;
11439;SDS011;5776;51.814;4.510;2023-05-10T15:23:41;10.43;;;4.53;;
11439;SDS011;5776;51.814;4.510;2023-05-10T15:26:07;7.23;;;4.97;;
11439;SDS011;5776;51.814;4.510;2023-05-10T15:28:33;11.07;;;5.10;;
11439;SDS011;5776;51.814;4.510;2023-05-10T15:30:59;8.00;;;5.00;;
11439;SDS011;5776;51.814;4.510;2023-05-10T15:33:25;7.97;;;5.53;;
11439;SDS011;5776;51.814;4.510;2023-05-10T15:35:53;9.27;;;5.73;;
11439;SDS011;5776;51.814;4.510;2023-05-10T15:38:19;8.53;;;5.30;;